This is the latest recevied weather packets stored in our database for station/object WD5EMA-4. If no packets are shown the sender has not sent any weather packets the latest 10 day(s).
| Time | Temp. | Humidity | Pressure | Rain* | Wind** | Luminosity | Snow |
|---|---|---|---|---|---|---|---|
| 1788094807 | 23.33° C | 96% | 987.5 hPa | 0 mm | - | - | - |
| 1788093007 | 22.22° C | 99% | 987.2 hPa | 0 mm | - | - | - |
| 1788091208 | 21.11° C | 99% | 986.8 hPa | 0 mm | - | - | - |
| 1788089407 | 21.11° C | 99% | 986.5 hPa | 0 mm | - | - | - |
| 1788087607 | 21.11° C | 99% | 986.1 hPa | 0 mm | - | - | - |
| 1788085807 | 21.11° C | 99% | 985.9 hPa | 0 mm | - | - | - |
| 1788084008 | 21.11° C | 99% | 985.8 hPa | 0 mm | - | - | - |
| 1788082207 | 21.67° C | 98% | 985.5 hPa | 0 mm | - | - | - |
| 1788080407 | 21.67° C | 97% | 985.6 hPa | 0 mm | - | - | - |
| 1788078607 | 21.67° C | 97% | 985.6 hPa | 0 mm | - | - | - |
| 1788076808 | 21.67° C | 96% | 985.4 hPa | 0 mm | - | - | - |
| 1788075007 | 21.67° C | 96% | 985.5 hPa | 0 mm | - | - | - |
| 1788073208 | 21.67° C | 96% | 985.8 hPa | 0 mm | - | - | - |
| 1788071407 | 21.67° C | 95% | 985.8 hPa | 0 mm | - | - | - |
| 1788069608 | 22.22° C | 95% | 986.1 hPa | 0 mm | - | - | - |
| 1788067807 | 22.22° C | 94% | 986.2 hPa | 0 mm | - | - | - |
| 1788066007 | 22.78° C | 93% | 986.3 hPa | 0 mm | - | - | - |
| 1788064207 | 23.33° C | 92% | 986.3 hPa | 0 mm | - | - | - |
| 1788062409 | 23.33° C | 91% | 986.3 hPa | 0 mm | - | - | - |
| 1788060607 | 23.89° C | 93% | 986.6 hPa | 0 mm | - | - | - |
| 1788058807 | 23.89° C | 91% | 986.4 hPa | 0 mm | - | - | - |
| 1788057008 | 24.44° C | 89% | 986 hPa | 0 mm | - | - | - |
| 1788055208 | 25.56° C | 83% | 985.5 hPa | 0 mm | - | - | - |
| 1788053408 | 25.56° C | 83% | 984.8 hPa | 0 mm | - | - | - |
| 1788051607 | 25° C | 83% | 984.2 hPa | 0 mm | - | - | - |
* Rain latest hour (hover to see other rain measurements)
** Current wind speed in m/s (hover to see current wind gust speed)